createdAt,value
2023-05-09T00:00:45.774Z,64.02
2023-05-09T00:03:51.919Z,64.07
2023-05-09T00:06:54.521Z,64.06
2023-05-09T00:09:57.337Z,64.01
2023-05-09T00:13:00.792Z,64.00
2023-05-09T00:16:03.842Z,64.10
2023-05-09T00:19:06.494Z,64.01
2023-05-09T00:22:09.970Z,64.02
2023-05-09T00:25:13.092Z,64.05
2023-05-09T00:28:15.997Z,64.05
2023-05-09T00:31:18.220Z,64.05
2023-05-09T00:34:23.031Z,64.06
2023-05-09T00:37:25.480Z,64.07
2023-05-09T00:40:27.896Z,64.12
2023-05-09T00:43:30.833Z,64.18
2023-05-09T00:46:33.856Z,64.17
2023-05-09T00:49:36.934Z,64.17
2023-05-09T00:52:39.815Z,64.17
2023-05-09T00:55:42.292Z,64.25
2023-05-09T00:58:45.348Z,64.22
2023-05-09T01:01:47.523Z,64.25
2023-05-09T01:04:50.665Z,64.21
2023-05-09T01:08:13.449Z,64.24
2023-05-09T01:11:29.020Z,64.25
2023-05-09T01:14:46.681Z,64.35
2023-05-09T01:18:28.226Z,64.31
2023-05-09T01:21:32.735Z,64.34
2023-05-09T01:24:49.828Z,64.33
2023-05-09T01:27:59.262Z,64.33
2023-05-09T01:31:04.332Z,64.38
2023-05-09T01:34:08.959Z,64.39
2023-05-09T01:37:16.409Z,64.44
2023-05-09T01:40:21.627Z,64.40
2023-05-09T01:43:27.933Z,64.46
2023-05-09T01:46:30.995Z,64.41
2023-05-09T01:49:36.740Z,64.41
2023-05-09T01:52:41.406Z,64.47
2023-05-09T01:55:44.906Z,64.46
2023-05-09T01:58:50.433Z,64.49
2023-05-09T02:01:55.456Z,64.50
2023-05-09T02:04:58.835Z,64.49
2023-05-09T02:08:23.668Z,64.58
2023-05-09T02:11:26.161Z,64.52
2023-05-09T02:14:32.059Z,64.51
2023-05-09T02:17:35.354Z,64.53
2023-05-09T02:20:38.398Z,64.55
2023-05-09T02:23:40.612Z,64.59
2023-05-09T02:26:44.065Z,64.58
2023-05-09T02:29:51.998Z,64.73
2023-05-09T02:33:02.240Z,64.62
2023-05-09T02:36:06.124Z,64.59
2023-05-09T02:39:09.399Z,64.62
2023-05-09T02:42:15.181Z,64.63
2023-05-09T02:45:18.052Z,64.64
2023-05-09T02:48:20.085Z,64.64
2023-05-09T02:51:22.923Z,64.64
2023-05-09T02:54:25.484Z,64.65
2023-05-09T02:57:28.559Z,64.61
2023-05-09T03:00:33.206Z,64.66
2023-05-09T03:03:38.086Z,64.57
2023-05-09T03:06:41.200Z,64.68
2023-05-09T03:09:44.712Z,64.63
2023-05-09T03:12:48.188Z,64.59
2023-05-09T03:15:50.887Z,64.61
2023-05-09T03:18:54.370Z,64.61
2023-05-09T03:21:57.762Z,64.57
2023-05-09T03:25:00.297Z,64.65
2023-05-09T03:28:02.888Z,64.58
2023-05-09T03:31:06.469Z,64.64
2023-05-09T03:34:15.761Z,64.59
2023-05-09T03:37:20.231Z,64.54
2023-05-09T03:40:22.916Z,64.53
2023-05-09T03:43:33.191Z,64.50
2023-05-09T03:46:35.498Z,64.55
2023-05-09T03:49:39.956Z,64.52
2023-05-09T03:52:44.041Z,64.51
2023-05-09T03:55:50.635Z,64.53
2023-05-09T03:58:53.860Z,64.51
2023-05-09T04:01:56.630Z,64.54
2023-05-09T04:05:02.984Z,64.54
2023-05-09T04:08:06.549Z,64.53
2023-05-09T04:11:09.148Z,64.55
2023-05-09T04:14:13.897Z,64.56
2023-05-09T04:17:16.051Z,64.49
2023-05-09T04:20:18.976Z,64.57
2023-05-09T04:23:21.194Z,64.52
2023-05-09T04:26:25.006Z,64.56
2023-05-09T04:29:30.619Z,64.59
2023-05-09T04:32:33.861Z,64.62
2023-05-09T04:35:36.431Z,64.55
2023-05-09T04:38:39.188Z,64.61
2023-05-09T04:41:48.131Z,64.61
2023-05-09T04:44:52.944Z,64.51
2023-05-09T04:47:57.440Z,64.45
2023-05-09T04:51:00.200Z,64.52
2023-05-09T04:54:03.293Z,64.60
2023-05-09T04:57:17.117Z,64.56
2023-05-09T05:00:23.152Z,64.48
2023-05-09T05:03:25.873Z,64.48
2023-05-09T05:06:28.593Z,64.45
2023-05-09T05:09:31.489Z,64.55
2023-05-09T05:12:34.161Z,64.41
2023-05-09T05:15:37.683Z,64.49
2023-05-09T05:18:41.149Z,64.43
2023-05-09T05:21:44.119Z,64.39
2023-05-09T05:24:47.320Z,64.40
2023-05-09T05:27:51.208Z,64.57
2023-05-09T05:30:53.788Z,64.43
2023-05-09T05:33:56.308Z,64.55
2023-05-09T05:36:59.584Z,64.54
2023-05-09T05:40:02.560Z,64.55
2023-05-09T05:43:07.548Z,64.46
2023-05-09T05:46:13.030Z,64.49
2023-05-09T05:49:15.482Z,64.53
2023-05-09T05:52:18.226Z,64.48
2023-05-09T05:55:21.006Z,64.56
2023-05-09T05:58:24.851Z,64.54
2023-05-09T06:01:27.736Z,65.39
2023-05-09T06:04:30.968Z,64.77
2023-05-09T06:07:36.176Z,64.39
2023-05-09T06:10:39.728Z,64.31
2023-05-09T06:13:42.477Z,64.34
2023-05-09T06:16:46.810Z,64.42
2023-05-09T06:19:52.345Z,64.38
2023-05-09T06:22:55.444Z,64.31
2023-05-09T06:25:57.667Z,64.26
2023-05-09T06:29:01.291Z,64.14
2023-05-09T06:32:05.960Z,64.14
2023-05-09T06:35:09.729Z,64.13
2023-05-09T06:38:13.007Z,64.17
2023-05-09T06:41:15.583Z,64.06
2023-05-09T06:44:18.179Z,64.22
2023-05-09T06:47:21.611Z,64.25
2023-05-09T06:50:24.152Z,64.24
2023-05-09T06:53:27.077Z,64.15
2023-05-09T06:56:29.348Z,64.11
2023-05-09T06:59:32.041Z,64.10
2023-05-09T07:02:34.630Z,64.01
2023-05-09T07:05:37.740Z,64.03
2023-05-09T07:08:40.114Z,64.05
2023-05-09T07:11:42.708Z,64.00
2023-05-09T07:14:45.124Z,64.28
2023-05-09T07:17:48.073Z,64.35
2023-05-09T07:20:50.524Z,64.19
2023-05-09T07:23:53.134Z,64.09
2023-05-09T07:26:55.185Z,64.01
2023-05-09T07:29:57.861Z,63.95
2023-05-09T07:33:01.818Z,63.93
2023-05-09T07:36:05.478Z,63.89
2023-05-09T07:39:08.391Z,64.06
2023-05-09T07:42:39.179Z,64.14
2023-05-09T07:45:42.615Z,64.28
2023-05-09T07:48:46.010Z,64.29
2023-05-09T07:51:49.615Z,63.86
2023-05-09T07:54:55.156Z,63.79
2023-05-09T07:57:57.648Z,63.48
2023-05-09T08:01:00.339Z,63.25
2023-05-09T08:04:02.719Z,63.05
2023-05-09T08:07:05.579Z,62.95
2023-05-09T08:10:09.923Z,62.90
2023-05-09T08:13:12.955Z,62.79
2023-05-09T08:16:17.730Z,62.79
2023-05-09T08:19:21.435Z,62.90
2023-05-09T08:22:24.839Z,63.09
2023-05-09T08:25:27.314Z,62.90
2023-05-09T08:28:30.182Z,62.59
2023-05-09T08:31:32.744Z,62.36
2023-05-09T08:34:35.899Z,62.22
2023-05-09T08:37:40.129Z,62.05
2023-05-09T08:40:42.356Z,62.14
2023-05-09T08:43:46.216Z,61.87
2023-05-09T08:46:51.022Z,61.92
2023-05-09T08:49:54.358Z,61.85
2023-05-09T08:52:56.951Z,61.64
2023-05-09T08:56:01.702Z,61.68
2023-05-09T08:59:06.087Z,61.58
2023-05-09T09:02:12.737Z,61.47
2023-05-09T09:05:34.244Z,61.30
2023-05-09T09:08:38.251Z,61.29
2023-05-09T09:11:41.104Z,61.32
2023-05-09T09:14:49.662Z,61.38
2023-05-09T09:17:56.840Z,61.32
2023-05-09T09:21:12.374Z,61.05
2023-05-09T09:24:15.971Z,60.84
2023-05-09T09:27:19.656Z,60.89
2023-05-09T09:30:26.130Z,60.84
2023-05-09T09:33:30.207Z,60.96
2023-05-09T09:36:33.186Z,61.03
2023-05-09T09:40:01.446Z,61.10
2023-05-09T09:43:07.601Z,61.22
2023-05-09T09:46:11.253Z,61.24
2023-05-09T09:49:17.752Z,61.23
2023-05-09T09:52:27.967Z,61.38
2023-05-09T09:55:32.705Z,61.36
2023-05-09T09:58:36.515Z,61.48
2023-05-09T10:01:58.626Z,61.62
2023-05-09T10:05:08.100Z,61.55
2023-05-09T10:08:11.251Z,61.60
2023-05-09T10:11:14.608Z,61.63
2023-05-09T10:14:19.118Z,61.72
2023-05-09T10:17:23.651Z,61.59
2023-05-09T10:20:27.274Z,61.55
2023-05-09T10:23:37.762Z,61.56
2023-05-09T10:26:46.767Z,61.52
2023-05-09T10:30:02.475Z,61.54
2023-05-09T10:33:09.456Z,61.54
2023-05-09T10:36:13.345Z,61.55
2023-05-09T10:39:27.579Z,61.61
2023-05-09T10:42:31.791Z,61.61
2023-05-09T10:45:35.238Z,61.67
2023-05-09T10:48:38.438Z,61.72
2023-05-09T10:51:40.885Z,61.87
2023-05-09T10:54:44.213Z,61.84
2023-05-09T10:57:54.041Z,61.95
2023-05-09T11:00:59.529Z,61.89
2023-05-09T11:04:03.022Z,62.02
2023-05-09T11:07:23.036Z,62.03
2023-05-09T11:10:25.382Z,62.77
2023-05-09T11:13:33.651Z,62.94
2023-05-09T11:17:02.216Z,63.01
2023-05-09T11:20:07.054Z,62.87
2023-05-09T11:23:11.971Z,62.86
2023-05-09T11:26:15.292Z,62.87
2023-05-09T11:29:18.274Z,62.83
2023-05-09T11:32:23.231Z,62.73
2023-05-09T11:35:27.454Z,62.84
2023-05-09T11:38:43.852Z,62.90
2023-05-09T11:41:50.157Z,63.49
2023-05-09T11:44:54.308Z,62.98
2023-05-09T11:47:58.305Z,62.57
2023-05-09T11:51:03.892Z,62.41
2023-05-09T11:54:09.240Z,62.11
2023-05-09T11:57:17.398Z,62.17
2023-05-09T12:00:22.554Z,62.13
2023-05-09T12:03:25.819Z,62.09
2023-05-09T12:06:28.854Z,62.02
2023-05-09T12:09:33.305Z,62.21
2023-05-09T12:12:37.517Z,61.84
2023-05-09T12:15:42.064Z,61.79
2023-05-09T12:18:46.680Z,61.91
2023-05-09T12:21:49.345Z,61.94
2023-05-09T12:24:51.493Z,62.11
2023-05-09T12:27:54.994Z,62.26
2023-05-09T12:30:58.289Z,62.25
2023-05-09T12:34:01.882Z,62.35
2023-05-09T12:37:04.927Z,62.31
2023-05-09T12:40:16.801Z,62.16
2023-05-09T12:43:19.744Z,62.28
2023-05-09T12:46:22.424Z,62.26
2023-05-09T12:49:28.080Z,62.28
2023-05-09T12:53:02.923Z,62.28
2023-05-09T12:56:14.825Z,62.36
2023-05-09T12:59:21.325Z,62.35
2023-05-09T13:02:27.725Z,62.39
2023-05-09T13:05:35.547Z,62.35
2023-05-09T13:08:39.628Z,62.37
2023-05-09T13:11:42.513Z,62.34
2023-05-09T13:14:45.574Z,62.53
2023-05-09T13:17:50.617Z,62.49
2023-05-09T13:20:53.547Z,62.47
2023-05-09T13:23:55.777Z,62.64
2023-05-09T13:26:58.374Z,62.67
2023-05-09T13:30:00.652Z,62.57
2023-05-09T13:33:16.576Z,62.57
2023-05-09T13:36:25.702Z,62.65
2023-05-09T13:39:28.271Z,62.65
2023-05-09T13:42:31.496Z,62.66
2023-05-09T13:45:35.532Z,62.59
2023-05-09T13:48:38.330Z,62.61
2023-05-09T13:51:45.051Z,62.57
2023-05-09T13:54:47.545Z,62.58
2023-05-09T13:57:52.880Z,62.65
2023-05-09T14:00:55.571Z,62.59
2023-05-09T14:03:58.533Z,62.63
2023-05-09T14:07:01.413Z,62.66
2023-05-09T14:13:13.167Z,62.66
2023-05-09T14:16:19.512Z,62.78
2023-05-09T14:19:21.844Z,62.74
2023-05-09T14:22:24.927Z,62.48
2023-05-09T14:25:28.568Z,62.69
2023-05-09T14:28:31.276Z,62.60
2023-05-09T14:31:33.669Z,62.54
2023-05-09T14:34:36.448Z,62.39
2023-05-09T14:37:39.450Z,62.82
2023-05-09T14:40:42.329Z,63.09
2023-05-09T14:43:50.204Z,62.91
2023-05-09T14:46:53.265Z,62.92
2023-05-09T14:49:56.387Z,62.93
2023-05-09T14:53:01.216Z,62.76
2023-05-09T14:56:03.610Z,62.73
2023-05-09T14:59:07.121Z,62.73
2023-05-09T15:02:09.218Z,62.67
2023-05-09T15:05:12.629Z,62.62
2023-05-09T15:08:16.059Z,62.60
2023-05-09T15:11:19.699Z,62.65
2023-05-09T15:14:22.333Z,62.67
2023-05-09T15:17:25.206Z,62.65
2023-05-09T15:20:27.783Z,62.58
2023-05-09T15:23:31.090Z,62.64
2023-05-09T15:26:37.446Z,62.72
2023-05-09T15:29:42.942Z,62.68
2023-05-09T15:32:48.360Z,62.69
2023-05-09T15:35:57.676Z,62.62
2023-05-09T15:39:01.911Z,62.59
2023-05-09T15:42:06.322Z,62.60
2023-05-09T15:45:10.283Z,62.55
2023-05-09T15:48:14.416Z,62.59
2023-05-09T15:51:17.138Z,62.56
2023-05-09T15:54:20.453Z,62.69
2023-05-09T15:57:23.395Z,62.75
2023-05-09T16:00:27.986Z,62.83
2023-05-09T16:03:30.787Z,63.05
2023-05-09T16:06:33.933Z,63.33
2023-05-09T16:09:37.478Z,63.34
2023-05-09T16:12:40.606Z,63.38
2023-05-09T16:15:45.104Z,63.38
2023-05-09T16:18:48.313Z,63.45
2023-05-09T16:21:50.984Z,63.50
2023-05-09T16:24:54.379Z,63.54
2023-05-09T16:27:57.136Z,63.54
2023-05-09T16:31:05.504Z,63.56
2023-05-09T16:34:08.636Z,63.63
2023-05-09T16:37:11.691Z,63.70
2023-05-09T16:40:15.408Z,63.87
2023-05-09T16:43:43.425Z,63.85
2023-05-09T16:47:13.266Z,63.99
2023-05-09T16:50:49.281Z,64.04
2023-05-09T16:54:57.170Z,64.16
2023-05-09T17:01:32.028Z,64.25
2023-05-09T17:04:36.709Z,64.23
2023-05-09T17:07:39.748Z,64.23
2023-05-09T17:10:42.241Z,64.17
2023-05-09T17:13:44.545Z,64.20
2023-05-09T17:16:46.885Z,64.18
2023-05-09T17:19:50.660Z,64.19
2023-05-09T17:22:53.076Z,64.19
2023-05-09T17:25:55.395Z,64.18
2023-05-09T17:28:58.120Z,64.16
2023-05-09T17:32:03.132Z,64.16
2023-05-09T17:35:06.541Z,64.14
2023-05-09T17:38:08.664Z,64.15
2023-05-09T17:41:10.976Z,64.19
2023-05-09T17:44:13.621Z,64.17
2023-05-09T17:47:15.989Z,64.19
2023-05-09T17:50:22.043Z,64.15
2023-05-09T17:53:24.554Z,64.14
2023-05-09T17:56:27.149Z,64.12
2023-05-09T17:59:29.958Z,64.15
2023-05-09T18:02:32.528Z,64.15
2023-05-09T18:05:35.216Z,64.14
2023-05-09T18:08:37.227Z,64.20
2023-05-09T18:11:40.457Z,64.19
2023-05-09T18:14:45.845Z,64.14
2023-05-09T18:17:49.466Z,64.15
2023-05-09T18:20:52.078Z,64.15
2023-05-09T18:23:57.863Z,64.15
2023-05-09T18:27:00.128Z,64.17
2023-05-09T18:30:02.599Z,64.14
2023-05-09T18:33:05.182Z,64.23
2023-05-09T18:36:09.954Z,64.19
2023-05-09T18:39:12.542Z,64.14
2023-05-09T18:42:16.355Z,64.15
2023-05-09T18:45:18.832Z,64.22
2023-05-09T18:48:21.719Z,64.12
2023-05-09T18:51:25.306Z,64.20
2023-05-09T18:54:27.731Z,64.21
2023-05-09T18:57:29.792Z,64.23
2023-05-09T19:00:32.146Z,64.40
2023-05-09T19:03:34.246Z,64.28
2023-05-09T19:06:36.551Z,64.17
2023-05-09T19:09:38.800Z,64.12
2023-05-09T19:12:41.230Z,64.12
2023-05-09T19:15:43.281Z,64.07
2023-05-09T19:18:45.640Z,64.06
2023-05-09T19:21:50.149Z,64.07
2023-05-09T19:24:52.751Z,64.09
2023-05-09T19:27:54.762Z,63.90
2023-05-09T19:30:57.615Z,63.88
2023-05-09T19:33:59.838Z,63.91
2023-05-09T19:37:03.630Z,64.05
2023-05-09T19:40:06.779Z,64.38
2023-05-09T19:43:09.153Z,64.84
2023-05-09T19:46:11.189Z,65.39
2023-05-09T19:49:17.187Z,65.30
2023-05-09T19:52:20.406Z,65.28
2023-05-09T19:55:23.209Z,65.46
2023-05-09T19:58:25.371Z,65.34
2023-05-09T20:01:28.228Z,65.25
2023-05-09T20:04:35.403Z,65.21
2023-05-09T20:07:37.721Z,65.27
2023-05-09T20:10:39.768Z,65.15
2023-05-09T20:13:42.916Z,65.05
2023-05-09T20:16:45.229Z,65.05
2023-05-09T20:19:47.539Z,65.01
2023-05-09T20:22:49.677Z,65.45
2023-05-09T20:25:52.305Z,64.99
2023-05-09T20:29:01.594Z,64.72
2023-05-09T20:32:04.293Z,64.84
2023-05-09T20:35:06.714Z,64.64
2023-05-09T20:38:09.940Z,64.58
2023-05-09T20:41:13.092Z,64.39
2023-05-09T20:44:16.159Z,64.25
2023-05-09T20:47:18.528Z,64.26
2023-05-09T20:50:20.831Z,63.97
2023-05-09T20:53:26.601Z,63.92
2023-05-09T20:56:29.214Z,63.79
2023-05-09T20:59:32.433Z,63.77
2023-05-09T21:02:37.966Z,63.71
2023-05-09T21:05:41.115Z,63.61
2023-05-09T21:08:43.563Z,63.48
2023-05-09T21:11:46.172Z,63.33
2023-05-09T21:14:51.105Z,63.25
2023-05-09T21:17:53.308Z,63.26
2023-05-09T21:20:55.877Z,62.81
2023-05-09T21:23:57.866Z,62.83
2023-05-09T21:27:00.203Z,62.81
2023-05-09T21:30:02.206Z,62.80
2023-05-09T21:33:04.579Z,62.82
2023-05-09T21:36:07.759Z,62.69
2023-05-09T21:39:10.638Z,62.67
2023-05-09T21:42:12.785Z,62.67
2023-05-09T21:45:15.405Z,62.72
2023-05-09T21:48:17.432Z,62.52
2023-05-09T21:51:19.781Z,62.39
2023-05-09T21:54:21.773Z,62.42
2023-05-09T21:57:24.058Z,62.47
2023-05-09T22:00:26.071Z,62.48
2023-05-09T22:03:28.457Z,62.50
2023-05-09T22:06:30.459Z,62.42
2023-05-09T22:09:33.069Z,62.41
2023-05-09T22:12:34.990Z,62.36
2023-05-09T22:15:37.291Z,62.13
2023-05-09T22:18:39.334Z,62.20
2023-05-09T22:21:42.005Z,62.18
2023-05-09T22:24:46.360Z,62.07
2023-05-09T22:27:48.776Z,62.05
2023-05-09T22:30:50.846Z,62.05
2023-05-09T22:33:53.260Z,62.03
2023-05-09T22:36:55.365Z,62.11
2023-05-09T22:39:57.768Z,61.88
2023-05-09T22:42:59.933Z,62.01
2023-05-09T22:46:02.517Z,61.95
2023-05-09T22:49:04.576Z,63.25
2023-05-09T22:52:06.903Z,63.00
2023-05-09T22:55:09.069Z,62.82
2023-05-09T22:58:11.554Z,62.72
2023-05-09T23:01:13.576Z,62.73
2023-05-09T23:04:17.698Z,62.67
2023-05-09T23:07:19.719Z,62.71
2023-05-09T23:10:22.094Z,62.42
2023-05-09T23:13:24.225Z,63.10
2023-05-09T23:16:26.727Z,63.88
2023-05-09T23:19:28.772Z,62.64
2023-05-09T23:22:31.525Z,63.55
2023-05-09T23:25:33.547Z,63.34
2023-05-09T23:28:35.863Z,63.18
2023-05-09T23:31:37.891Z,63.11
2023-05-09T23:34:40.356Z,63.16
2023-05-09T23:37:43.039Z,63.15
2023-05-09T23:40:46.182Z,63.12
2023-05-09T23:43:48.191Z,63.35
2023-05-09T23:46:50.428Z,63.42
2023-05-09T23:49:52.423Z,64.23
2023-05-09T23:52:54.761Z,63.87
2023-05-09T23:55:57.334Z,63.65
2023-05-09T23:58:59.615Z,63.49
